| time (UTC) | temp F | wind direction | speed MPH | gust MPH | rain 1hr in | rain 24hr in | rain mn in | humidity % | barometer mb |
| 20260906225316 | 98 | 105 | 1.0 | 3.0 | 0.00 | 0.00 | 0.00 | 43 | 1007.4 |
| 20260906224812 | 98 | 92 | 2.0 | 3.0 | 0.00 | 0.00 | 0.00 | 43 | 1007.4 |
| 20260906224308 | 98 | 105 | 3.0 | 3.0 | 0.00 | 0.00 | 0.00 | 42 | 1007.6 |
| 20260906223804 | 98 | 141 | 4.0 | 6.0 | 0.00 | 0.00 | 0.00 | 42 | 1007.8 |
| 20260906223300 | 98 | 124 | 1.0 | 5.0 | 0.00 | 0.00 | 0.00 | 43 | 1007.5 |
| 20260906222758 | 98 | 97 | 2.0 | 5.0 | 0.00 | 0.00 | 0.00 | 43 | 1007.6 |
| 20260906222257 | 98 | 85 | 2.0 | 3.0 | 0.00 | 0.00 | 0.00 | 42 | 1007.5 |
| 20260906221755 | 98 | 112 | 2.0 | 3.0 | 0.00 | 0.00 | 0.00 | 42 | 1007.5 |
| 20260906221249 | 98 | 110 | 3.0 | 6.0 | 0.00 | 0.00 | 0.00 | 42 | 1007.6 |
| 20260906220745 | 97 | 131 | 4.0 | 10.0 | 0.00 | 0.00 | 0.00 | 43 | 1007.6 |
| 20260906220240 | 98 | 149 | 4.0 | 6.0 | 0.00 | 0.00 | 0.00 | 42 | 1007.6 |
| 20260906215739 | 98 | 163 | 2.0 | 6.0 | 0.00 | 0.00 | 0.00 | 42 | 1007.6 |
| 20260906215233 | 98 | 130 | 2.0 | 8.0 | 0.00 | 0.00 | 0.00 | 43 | 1007.6 |
| 20260906214731 | 99 | 137 | 2.0 | 6.0 | 0.00 | 0.00 | 0.00 | 44 | 1007.5 |
| 20260906214226 | 98 | 154 | 3.0 | 9.0 | 0.00 | 0.00 | 0.00 | 44 | 1007.6 |
| 20260906213720 | 98 | 137 | 4.0 | 7.0 | 0.00 | 0.00 | 0.00 | 42 | 1007.7 |
| 20260906213219 | 98 | 119 | 4.0 | 6.0 | 0.00 | 0.00 | 0.00 | 43 | 1007.6 |
| 20260906212717 | 99 | 180 | 2.0 | 2.0 | 0.00 | 0.00 | 0.00 | 42 | 1007.8 |
| 20260906212213 | 99 | 130 | 2.0 | 3.0 | 0.00 | 0.00 | 0.00 | 42 | 1007.9 |
| 20260906211707 | 98 | 96 | 1.0 | 5.0 | 0.00 | 0.00 | 0.00 | 42 | 1007.8 |
| 20260906211203 | 99 | 135 | 3.0 | 7.0 | 0.00 | 0.00 | 0.00 | 41 | 1008.2 |
| 20260906210658 | 98 | 139 | 4.0 | 9.0 | 0.00 | 0.00 | 0.00 | 42 | 1008.3 |
| 20260906210158 | 98 | 121 | 5.0 | 8.0 | 0.00 | 0.00 | 0.00 | 42 | 1008.2 |
| 20260906205653 | 98 | 117 | 4.0 | 6.0 | 0.00 | 0.00 | 0.00 | 43 | 1008.5 |
| 20260906205149 | 98 | 168 | 5.0 | 8.0 | 0.00 | 0.00 | 0.00 | 43 | 1008.3 |
| 20260906204649 | 98 | 123 | 6.0 | 7.0 | 0.00 | 0.00 | 0.00 | 43 | 1008.4 |
| 20260906204144 | 98 | 124 | 4.0 | 5.0 | 0.00 | 0.00 | 0.00 | 42 | 1008.5 |
| 20260906203643 | 99 | 90 | 3.0 | 8.0 | 0.00 | 0.00 | 0.00 | 44 | 1008.8 |
| 20260906203138 | 99 | 153 | 4.0 | 6.0 | 0.00 | 0.00 | 0.00 | 43 | 1008.7 |
| 20260906202635 | 97 | 173 | 3.0 | 7.0 | 0.00 | 0.00 | 0.00 | 44 | 1008.8 |
| 20260906202134 | 98 | 117 | 4.0 | 7.0 | 0.00 | 0.00 | 0.00 | 44 | 1008.8 |
| 20260906201629 | 99 | 153 | 4.0 | 5.0 | 0.00 | 0.00 | 0.00 | 43 | 1009.0 |
| 20260906201128 | 98 | 177 | 1.0 | 3.0 | 0.00 | 0.00 | 0.00 | 43 | 1008.8 |
| 20260906200625 | 96 | 87 | 2.0 | 6.0 | 0.00 | 0.00 | 0.00 | 46 | 1009.0 |
| 20260906200120 | 97 | 117 | 2.0 | 11.0 | 0.00 | 0.00 | 0.00 | 46 | 1009.0 |
| 20260906195615 | 97 | 161 | 4.0 | 5.0 | 0.00 | 0.00 | 0.00 | 44 | 1008.9 |
| 20260906195112 | 98 | 162 | 5.0 | 7.0 | 0.00 | 0.00 | 0.00 | 45 | 1008.9 |
| 20260906194607 | 98 | 185 | 4.0 | 8.0 | 0.00 | 0.00 | 0.00 | 45 | 1009.0 |
| 20260906194103 | 99 | 112 | 3.0 | 7.0 | 0.00 | 0.00 | 0.00 | 43 | 1009.2 |
| 20260906193557 | 98 | 115 | 2.0 | 7.0 | 0.00 | 0.00 | 0.00 | 46 | 1009.3 |
| 20260906193052 | 98 | 52 | 3.0 | 7.0 | 0.00 | 0.00 | 0.00 | 46 | 1009.2 |
| 20260906192548 | 97 | 141 | 3.0 | 9.0 | 0.00 | 0.00 | 0.00 | 46 | 1009.2 |
| 20260906192047 | 96 | 118 | 2.0 | 3.0 | 0.00 | 0.00 | 0.00 | 47 | 1009.3 |
| 20260906191542 | 96 | 106 | 4.0 | 9.0 | 0.00 | 0.00 | 0.00 | 48 | 1009.5 |
| 20260906191041 | 95 | 153 | 5.0 | 6.0 | 0.00 | 0.00 | 0.00 | 50 | 1009.5 |
| 20260906190541 | 96 | 156 | 6.0 | 9.0 | 0.00 | 0.00 | 0.00 | 49 | 1009.7 |
| 20260906190036 | 97 | 99 | 1.0 | 6.0 | 0.00 | 0.00 | 0.00 | 48 | 1009.6 |
| 20260906185535 | 96 | 77 | 2.0 | 7.0 | 0.00 | 0.00 | 0.00 | 49 | 1009.5 |
| 20260906185034 | 97 | 138 | 1.0 | 5.0 | 0.00 | 0.00 | 0.00 | 49 | 1009.8 |
| 20260906184529 | 94 | 163 | 3.0 | 6.0 | 0.00 | 0.00 | 0.00 | 51 | 1009.7 |
| 20260906184025 | 96 | 158 | 4.0 | 6.0 | 0.00 | 0.00 | 0.00 | 49 | 1009.9 |
| 20260906183521 | 96 | 150 | 7.0 | 9.0 | 0.00 | 0.00 | 0.00 | 50 | 1010.0 |
| 20260906183016 | 96 | 82 | 1.0 | 5.0 | 0.00 | 0.00 | 0.00 | 49 | 1009.8 |
| 20260906182511 | 95 | 230 | 3.0 | 5.0 | 0.00 | 0.00 | 0.00 | 51 | 1010.1 |
| 20260906182007 | 96 | 163 | 2.0 | 3.0 | 0.00 | 0.00 | 0.00 | 50 | 1010.1 |
| 20260906181502 | 96 | 123 | 3.0 | 5.0 | 0.00 | 0.00 | 0.00 | 50 | 1010.2 |
| 20260906180958 | 96 | 83 | 3.0 | 6.0 | 0.00 | 0.00 | 0.00 | 49 | 1010.2 |
| 20260906180452 | 96 | 128 | 5.0 | 7.0 | 0.00 | 0.00 | 0.00 | 50 | 1010.3 |
| 20260906175951 | 96 | 51 | 4.0 | 6.0 | 0.00 | 0.00 | 0.00 | 52 | 1010.3 |
| 20260906175445 | 96 | 129 | 3.0 | 7.0 | 0.00 | 0.00 | 0.00 | 50 | 1010.4 |
| 20260906174943 | 95 | 132 | 2.0 | 5.0 | 0.00 | 0.00 | 0.00 | 50 | 1010.5 |
| 20260906174437 | 95 | 167 | 1.0 | 2.0 | 0.00 | 0.00 | 0.00 | 51 | 1010.7 |
| 20260906173933 | 94 | 163 | 7.0 | 8.0 | 0.00 | 0.00 | 0.00 | 52 | 1010.7 |
| 20260906173428 | 94 | 102 | 3.0 | 9.0 | 0.00 | 0.00 | 0.00 | 53 | 1010.7 |
| 20260906172927 | 95 | 138 | 3.0 | 8.0 | 0.00 | 0.00 | 0.00 | 52 | 1010.8 |
| 20260906172424 | 95 | 95 | 2.0 | 5.0 | 0.00 | 0.00 | 0.00 | 52 | 1011.0 |
| 20260906171919 | 95 | 58 | 1.0 | 3.0 | 0.00 | 0.00 | 0.00 | 52 | 1011.1 |
| 20260906171413 | 94 | 87 | 1.0 | 2.0 | 0.00 | 0.00 | 0.00 | 53 | 1011.1 |
| 20260906170909 | 93 | 139 | 2.0 | 3.0 | 0.00 | 0.00 | 0.00 | 53 | 1010.9 |
| 20260906170405 | 93 | 135 | 3.0 | 5.0 | 0.00 | 0.00 | 0.00 | 53 | 1011.0 |
| 20260906165901 | 94 | 178 | 5.0 | 6.0 | 0.00 | 0.00 | 0.00 | 53 | 1011.0 |
| 20260906165355 | 93 | 88 | 3.0 | 8.0 | 0.00 | 0.00 | 0.00 | 55 | 1011.1 |
| 20260906164850 | 95 | 150 | 2.0 | 3.0 | 0.00 | 0.00 | 0.00 | 54 | 1010.9 |
| 20260906164349 | 94 | 114 | 1.0 | 5.0 | 0.00 | 0.00 | 0.00 | 55 | 1011.5 |
| 20260906163845 | 93 | 61 | 3.0 | 3.0 | 0.00 | 0.00 | 0.00 | 55 | 1011.3 |
| 20260906163341 | 92 | 74 | 2.0 | 6.0 | 0.00 | 0.00 | 0.00 | 55 | 1011.6 |
| 20260906162839 | 92 | 158 | 1.0 | 6.0 | 0.00 | 0.00 | 0.00 | 57 | 1011.1 |
| 20260906162337 | 92 | 165 | 3.0 | 5.0 | 0.00 | 0.00 | 0.00 | 57 | 1011.3 |
| 20260906161833 | 93 | 125 | 2.0 | 3.0 | 0.00 | 0.00 | 0.00 | 57 | 1011.0 |
| 20260906161332 | 92 | 131 | 0.0 | 3.0 | 0.00 | 0.00 | 0.00 | 61 | 1011.3 |
| 20260906160831 | 91 | 174 | 3.0 | 6.0 | 0.00 | 0.00 | 0.00 | 62 | 1011.1 |
| 20260906160325 | 90 | 163 | 3.0 | 5.0 | 0.00 | 0.00 | 0.00 | 63 | 1011.1 |
| 20260906155823 | 91 | 143 | 4.0 | 6.0 | 0.00 | 0.00 | 0.00 | 61 | 1011.4 |
| 20260906155317 | 91 | 91 | 4.0 | 6.0 | 0.00 | 0.00 | 0.00 | 62 | 1011.3 |
| 20260906154814 | 90 | 87 | 0.0 | 3.0 | 0.00 | 0.00 | 0.00 | 65 | 1011.4 |
| 20260906154308 | 89 | 81 | 1.0 | 5.0 | 0.00 | 0.00 | 0.00 | 67 | 1011.1 |
| 20260906153807 | 89 | 128 | 3.0 | 5.0 | 0.00 | 0.00 | 0.00 | 67 | 1011.1 |
| 20260906153301 | 90 | 104 | 3.0 | 5.0 | 0.00 | 0.00 | 0.00 | 67 | 1011.0 |
| 20260906152756 | 89 | 84 | 0.0 | 1.0 | 0.00 | 0.00 | 0.00 | 66 | 1010.9 |
| 20260906152251 | 88 | 8 | 2.0 | 5.0 | 0.00 | 0.00 | 0.00 | 71 | 1011.0 |
| 20260906151750 | 88 | 144 | 4.0 | 5.0 | 0.00 | 0.00 | 0.00 | 71 | 1011.0 |
| 20260906151246 | 88 | 124 | 1.0 | 2.0 | 0.00 | 0.00 | 0.00 | 70 | 1010.9 |
| 20260906150741 | 87 | 79 | 1.0 | 6.0 | 0.00 | 0.00 | 0.00 | 73 | 1010.8 |
| 20260906150237 | 87 | 69 | 1.0 | 3.0 | 0.00 | 0.00 | 0.00 | 72 | 1010.9 |
| 20260906145736 | 86 | 72 | 2.0 | 2.0 | 0.00 | 0.00 | 0.00 | 72 | 1010.8 |
| 20260906145234 | 87 | 144 | 2.0 | 2.0 | 0.00 | 0.00 | 0.00 | 73 | 1010.9 |
| 20260906144730 | 86 | 102 | 0.0 | 3.0 | 0.00 | 0.00 | 0.00 | 74 | 1011.0 |
| 20260906144225 | 86 | 34 | 1.0 | 5.0 | 0.00 | 0.00 | 0.00 | 75 | 1010.9 |
| 20260906143724 | 87 | 24 | 0.0 | 1.0 | 0.00 | 0.00 | 0.00 | 73 | 1010.9 |
| 20260906143222 | 86 | 53 | 0.0 | 1.0 | 0.00 | 0.00 | 0.00 | 75 | 1011.1 |
| 20260906142721 | 85 | 117 | 1.0 | 2.0 | 0.00 | 0.00 | 0.00 | 76 | 1010.9 |
| 20260906142216 | 85 | 102 | 0.0 | 2.0 | 0.00 | 0.00 | 0.00 | 77 | 1011.0 |
| 20260906141715 | 85 | 125 | 0.0 | 1.0 | 0.00 | 0.00 | 0.00 | 77 | 1011.0 |
| 20260906141210 | 84 | 137 | 0.0 | 0.0 | 0.00 | 0.00 | 0.00 | 77 | 1011.0 |
| 20260906140709 | 84 | 116 | 1.0 | 3.0 | 0.00 | 0.00 | 0.00 | 80 | 1010.9 |
| 20260906140205 | 83 | 97 | 0.0 | 2.0 | 0.00 | 0.00 | 0.00 | 81 | 1010.9 |
| 20260906135701 | 83 | 121 | 0.0 | 2.0 | 0.00 | 0.00 | 0.00 | 82 | 1010.9 |
| 20260906135157 | 83 | 128 | 1.0 | 1.0 | 0.00 | 0.00 | 0.00 | 82 | 1010.8 |
| 20260906134652 | 82 | 135 | 0.0 | 2.0 | 0.00 | 0.00 | 0.00 | 84 | 1010.7 |
| 20260906134147 | 82 | 109 | 0.0 | 2.0 | 0.00 | 0.00 | 0.00 | 84 | 1010.7 |
| 20260906133643 | 81 | 131 | 1.0 | 2.0 | 0.00 | 0.00 | 0.00 | 86 | 1010.7 |
| 20260906133138 | 80 | 60 | 1.0 | 2.0 | 0.00 | 0.00 | 0.00 | 87 | 1010.8 |
| 20260906132633 | 80 | 79 | 0.0 | 1.0 | 0.00 | 0.00 | 0.00 | 87 | 1011.0 |
| 20260906132129 | 80 | 115 | 0.0 | 1.0 | 0.00 | 0.00 | 0.00 | 88 | 1010.8 |
| 20260906131624 | 80 | 131 | 0.0 | 1.0 | 0.00 | 0.00 | 0.00 | 88 | 1010.9 |
| 20260906131119 | 79 | 123 | 0.0 | 1.0 | 0.00 | 0.00 | 0.00 | 89 | 1010.7 |
| 20260906130615 | 79 | 129 | 0.0 | 0.0 | 0.00 | 0.00 | 0.00 | 89 | 1010.8 |
| 20260906130109 | 78 | 138 | 0.0 | 1.0 | 0.00 | 0.00 | 0.00 | 90 | 1010.8 |
| 20260906125607 | 78 | 139 | 0.0 | 0.0 | 0.00 | 0.00 | 0.00 | 90 | 1010.5 |
| 20260906125100 | 78 | 121 | 0.0 | 0.0 | 0.00 | 0.00 | 0.00 | 91 | 1010.3 |
| 20260906124556 | 78 | 123 | 0.0 | 1.0 | 0.00 | 0.00 | 0.00 | 91 | 1010.5 |
| 20260906124051 | 78 | 86 | 1.0 | 1.0 | 0.00 | 0.00 | 0.00 | 91 | 1010.6 |
| 20260906123550 | 77 | 124 | 0.0 | 0.0 | 0.00 | 0.00 | 0.00 | 92 | 1010.5 |
| 20260906123046 | 77 | 128 | 0.0 | 0.0 | 0.00 | 0.00 | 0.00 | 92 | 1010.4 |
| 20260906122544 | 77 | 109 | 0.0 | 0.0 | 0.00 | 0.00 | 0.00 | 92 | 1010.4 |
| 20260906122041 | 77 | 115 | 0.0 | 0.0 | 0.00 | 0.00 | 0.00 | 92 | 1010.4 |
| 20260906121537 | 77 | 120 | 0.0 | 0.0 | 0.00 | 0.00 | 0.00 | 92 | 1010.2 |
| 20260906121033 | 77 | 130 | 0.0 | 0.0 | 0.00 | 0.00 | 0.00 | 92 | 1010.3 |
| 20260906120528 | 77 | 136 | 0.0 | 0.0 | 0.00 | 0.00 | 0.00 | 92 | 1010.2 |
| 20260906120025 | 77 | 126 | 0.0 | 0.0 | 0.00 | 0.00 | 0.00 | 92 | 1010.1 |
| 20260906115525 | 77 | 118 | 0.0 | 0.0 | 0.00 | 0.00 | 0.00 | 91 | 1010.1 |
| 20260906115020 | 77 | 127 | 0.0 | 0.0 | 0.00 | 0.00 | 0.00 | 91 | 1010.1 |
| 20260906114514 | 77 | 133 | 0.0 | 0.0 | 0.00 | 0.00 | 0.00 | 91 | 1010.0 |
| 20260906114010 | 77 | 129 | 0.0 | 0.0 | 0.00 | 0.00 | 0.00 | 91 | 1010.1 |
| 20260906113509 | 77 | 123 | 0.0 | 0.0 | 0.00 | 0.00 | 0.00 | 91 | 1010.2 |
| 20260906113005 | 77 | 122 | 0.0 | 0.0 | 0.00 | 0.00 | 0.00 | 91 | 1009.9 |
| 20260906112459 | 77 | 88 | 0.0 | 0.0 | 0.00 | 0.00 | 0.00 | 91 | 1010.1 |
| 20260906111955 | 77 | 126 | 0.0 | 0.0 | 0.00 | 0.00 | 0.00 | 91 | 1010.0 |
| 20260906111454 | 77 | 130 | 0.0 | 0.0 | 0.00 | 0.00 | 0.00 | 90 | 1010.0 |
| 20260906110949 | 78 | 142 | 0.0 | 0.0 | 0.00 | 0.00 | 0.00 | 90 | 1010.0 |
| 20260906110445 | 78 | 123 | 0.0 | 0.0 | 0.00 | 0.00 | 0.00 | 90 | 1010.0 |
| 20260906105944 | 78 | 125 | 0.0 | 0.0 | 0.00 | 0.00 | 0.00 | 90 | 1009.9 |
| 20260906105440 | 78 | 127 | 0.0 | 0.0 | 0.00 | 0.00 | 0.00 | 89 | 1009.9 |
| 20260906104936 | 78 | 138 | 0.0 | 0.0 | 0.00 | 0.00 | 0.00 | 89 | 1009.7 |
| 20260906104434 | 78 | 138 | 0.0 | 0.0 | 0.00 | 0.00 | 0.00 | 90 | 1009.6 |
| 20260906103933 | 78 | 138 | 0.0 | 0.0 | 0.00 | 0.00 | 0.00 | 89 | 1009.8 |
| 20260906103432 | 78 | 138 | 0.0 | 0.0 | 0.00 | 0.00 | 0.00 | 89 | 1009.8 |
| 20260906102927 | 78 | 136 | 0.0 | 0.0 | 0.00 | 0.00 | 0.00 | 89 | 1009.6 |
| 20260906102427 | 78 | 127 | 0.0 | 0.0 | 0.00 | 0.00 | 0.00 | 89 | 1009.6 |
| 20260906101922 | 78 | 158 | 0.0 | 0.0 | 0.00 | 0.00 | 0.00 | 89 | 1009.5 |
| 20260906101417 | 78 | 150 | 0.0 | 0.0 | 0.00 | 0.00 | 0.00 | 89 | 1009.6 |
| 20260906100912 | 78 | 157 | 0.0 | 0.0 | 0.00 | 0.00 | 0.00 | 88 | 1009.4 |
| 20260906100412 | 78 | 151 | 0.0 | 0.0 | 0.00 | 0.00 | 0.00 | 88 | 1009.7 |
| 20260906095907 | 78 | 151 | 0.0 | 0.0 | 0.00 | 0.00 | 0.00 | 87 | 1009.4 |
| 20260906095402 | 78 | 153 | 0.0 | 0.0 | 0.00 | 0.00 | 0.00 | 87 | 1009.6 |
| 20260906094856 | 79 | 166 | 0.0 | 0.0 | 0.00 | 0.00 | 0.00 | 87 | 1009.6 |
| 20260906094351 | 79 | 178 | 0.0 | 0.0 | 0.00 | 0.00 | 0.00 | 86 | 1009.3 |
| 20260906093847 | 79 | 164 | 0.0 | 0.0 | 0.00 | 0.00 | 0.00 | 86 | 1009.3 |
| 20260906093343 | 79 | 163 | 0.0 | 0.0 | 0.00 | 0.00 | 0.00 | 85 | 1009.2 |
| 20260906092837 | 80 | 164 | 0.0 | 0.0 | 0.00 | 0.00 | 0.00 | 85 | 1009.3 |
| 20260906092332 | 80 | 170 | 0.0 | 0.0 | 0.00 | 0.00 | 0.00 | 84 | 1009.3 |
| 20260906091828 | 80 | 155 | 0.0 | 0.0 | 0.00 | 0.00 | 0.00 | 84 | 1009.1 |
| 20260906091324 | 80 | 158 | 0.0 | 0.0 | 0.00 | 0.00 | 0.00 | 84 | 1009.0 |
| 20260906090820 | 80 | 157 | 0.0 | 0.0 | 0.00 | 0.00 | 0.00 | 83 | 1009.1 |
| 20260906090319 | 81 | 157 | 0.0 | 1.0 | 0.00 | 0.00 | 0.00 | 83 | 1009.1 |
| 20260906085819 | 81 | 154 | 0.0 | 1.0 | 0.00 | 0.00 | 0.00 | 83 | 1009.0 |
| 20260906085318 | 81 | 160 | 0.0 | 1.0 | 0.00 | 0.00 | 0.00 | 83 | 1008.9 |
| 20260906084813 | 81 | 152 | 1.0 | 1.0 | 0.00 | 0.00 | 0.00 | 82 | 1009.0 |
| 20260906084312 | 81 | 181 | 0.0 | 5.0 | 0.00 | 0.00 | 0.00 | 82 | 1008.9 |
| 20260906083807 | 81 | 170 | 0.0 | 2.0 | 0.00 | 0.00 | 0.00 | 82 | 1009.0 |
| 20260906083302 | 81 | 138 | 1.0 | 3.0 | 0.00 | 0.00 | 0.00 | 82 | 1008.7 |
| 20260906082757 | 81 | 154 | 1.0 | 3.0 | 0.00 | 0.00 | 0.00 | 81 | 1009.0 |
| 20260906082252 | 81 | 165 | 0.0 | 3.0 | 0.00 | 0.00 | 0.00 | 81 | 1009.0 |
| 20260906081748 | 81 | 195 | 2.0 | 3.0 | 0.00 | 0.00 | 0.00 | 81 | 1008.9 |
| 20260906081243 | 82 | 157 | 1.0 | 2.0 | 0.00 | 0.00 | 0.00 | 81 | 1008.9 |
| 20260906080739 | 82 | 162 | 1.0 | 2.0 | 0.00 | 0.00 | 0.00 | 80 | 1009.0 |
| 20260906080236 | 82 | 176 | 1.0 | 3.0 | 0.00 | 0.00 | 0.00 | 80 | 1009.0 |
| 20260906075729 | 82 | 172 | 0.0 | 1.0 | 0.00 | 0.00 | 0.00 | 80 | 1009.2 |
| 20260906075224 | 82 | 208 | 2.0 | 2.0 | 0.00 | 0.00 | 0.00 | 80 | 1009.1 |
| 20260906074720 | 82 | 204 | 2.0 | 2.0 | 0.00 | 0.00 | 0.00 | 80 | 1009.1 |
| 20260906074219 | 82 | 162 | 1.0 | 2.0 | 0.00 | 0.00 | 0.00 | 79 | 1009.1 |
| 20260906073713 | 82 | 168 | 1.0 | 5.0 | 0.00 | 0.00 | 0.00 | 80 | 1009.2 |
| 20260906073208 | 82 | 170 | 1.0 | 3.0 | 0.00 | 0.00 | 0.00 | 80 | 1009.0 |
| 20260906072704 | 82 | 147 | 1.0 | 1.0 | 0.00 | 0.00 | 0.00 | 80 | 1009.1 |
| 20260906072159 | 82 | 209 | 1.0 | 2.0 | 0.00 | 0.00 | 0.00 | 79 | 1009.0 |
| 20260906071655 | 82 | 203 | 0.0 | 1.0 | 0.00 | 0.00 | 0.00 | 79 | 1009.0 |
| 20260906071155 | 82 | 201 | 3.0 | 3.0 | 0.00 | 0.00 | 0.00 | 78 | 1009.2 |
| 20260906070652 | 82 | 196 | 1.0 | 3.0 | 0.00 | 0.00 | 0.00 | 78 | 1009.1 |
| 20260906070147 | 82 | 196 | 3.0 | 3.0 | 0.00 | 0.00 | 0.00 | 78 | 1009.4 |
| 20260906065647 | 82 | 206 | 1.0 | 1.0 | 0.00 | 0.00 | 0.00 | 77 | 1009.2 |
| 20260906065142 | 82 | 170 | 0.0 | 1.0 | 0.00 | 0.00 | 0.00 | 76 | 1009.3 |
| 20260906064638 | 83 | 172 | 1.0 | 1.0 | 0.00 | 0.00 | 0.00 | 75 | 1009.4 |
| 20260906064133 | 83 | 156 | 0.0 | 3.0 | 0.00 | 0.00 | 0.00 | 75 | 1009.3 |
| 20260906063628 | 83 | 165 | 1.0 | 3.0 | 0.00 | 0.00 | 0.00 | 75 | 1009.4 |
| 20260906063124 | 83 | 159 | 1.0 | 1.0 | 0.00 | 0.00 | 0.00 | 74 | 1009.3 |
| 20260906062620 | 83 | 171 | 1.0 | 3.0 | 0.00 | 0.00 | 0.00 | 74 | 1009.2 |
| 20260906062118 | 83 | 158 | 0.0 | 1.0 | 0.00 | 0.00 | 0.00 | 73 | 1009.2 |
| 20260906061615 | 84 | 185 | 3.0 | 6.0 | 0.00 | 0.00 | 0.00 | 73 | 1009.5 |
| 20260906061114 | 84 | 170 | 1.0 | 6.0 | 0.00 | 0.00 | 0.00 | 72 | 1009.5 |
| 20260906060611 | 84 | 145 | 2.0 | 3.0 | 0.00 | 0.00 | 0.00 | 72 | 1009.4 |
| 20260906060108 | 84 | 161 | 1.0 | 2.0 | 0.00 | 0.00 | 0.00 | 71 | 1009.3 |
| 20260906055603 | 84 | 140 | 3.0 | 3.0 | 0.00 | 0.00 | 0.00 | 71 | 1009.2 |
| 20260906055059 | 84 | 179 | 2.0 | 5.0 | 0.00 | 0.00 | 0.00 | 70 | 1009.3 |
| 20260906054558 | 84 | 158 | 2.0 | 3.0 | 0.00 | 0.00 | 0.00 | 70 | 1009.3 |
| 20260906054054 | 85 | 151 | 2.0 | 5.0 | 0.00 | 0.00 | 0.00 | 69 | 1009.5 |
| 20260906053550 | 85 | 166 | 1.0 | 5.0 | 0.00 | 0.00 | 0.00 | 69 | 1009.3 |
| 20260906053046 | 85 | 162 | 3.0 | 6.0 | 0.00 | 0.00 | 0.00 | 69 | 1009.4 |
| 20260906052541 | 85 | 170 | 2.0 | 3.0 | 0.00 | 0.00 | 0.00 | 69 | 1009.2 |
| 20260906052038 | 85 | 152 | 2.0 | 3.0 | 0.00 | 0.00 | 0.00 | 69 | 1009.2 |
| 20260906051533 | 85 | 182 | 1.0 | 3.0 | 0.00 | 0.00 | 0.00 | 68 | 1009.2 |
| 20260906051029 | 85 | 218 | 2.0 | 3.0 | 0.00 | 0.00 | 0.00 | 68 | 1009.2 |
| 20260906050524 | 85 | 238 | 3.0 | 5.0 | 0.00 | 0.00 | 0.00 | 68 | 1009.2 |
| 20260906050018 | 85 | 147 | 1.0 | 3.0 | 0.00 | 0.00 | 0.00 | 67 | 1009.2 |
| 20260906045517 | 85 | 172 | 0.0 | 3.0 | 0.00 | 0.00 | 0.00 | 68 | 1009.4 |
| 20260906045013 | 85 | 159 | 1.0 | 3.0 | 0.00 | 0.00 | 0.00 | 69 | 1009.1 |
| 20260906044508 | 85 | 169 | 3.0 | 3.0 | 0.00 | 0.00 | 0.00 | 68 | 1009.3 |
| 20260906044004 | 86 | 156 | 1.0 | 3.0 | 0.00 | 0.00 | 0.00 | 68 | 1009.3 |
| 20260906043459 | 86 | 187 | 3.0 | 7.0 | 0.00 | 0.00 | 0.00 | 68 | 1009.3 |
| 20260906042955 | 86 | 149 | 2.0 | 5.0 | 0.00 | 0.00 | 0.00 | 68 | 1009.4 |
| 20260906042454 | 86 | 152 | 3.0 | 8.0 | 0.00 | 0.00 | 0.00 | 68 | 1009.4 |
| 20260906041953 | 86 | 145 | 3.0 | 6.0 | 0.00 | 0.00 | 0.00 | 67 | 1009.3 |
| 20260906041450 | 86 | 152 | 2.0 | 8.0 | 0.00 | 0.00 | 0.00 | 67 | 1009.3 |
| 20260906040949 | 86 | 132 | 4.0 | 5.0 | 0.00 | 0.00 | 0.00 | 67 | 1009.2 |
| 20260906040444 | 86 | 176 | 2.0 | 7.0 | 0.00 | 0.00 | 0.00 | 66 | 1009.5 |
| 20260906035940 | 86 | 158 | 1.0 | 3.0 | 0.00 | 0.00 | 0.00 | 66 | 1009.2 |
| 20260906035435 | 86 | 169 | 1.0 | 5.0 | 0.00 | 0.00 | 0.00 | 66 | 1009.3 |
| 20260906034931 | 86 | 141 | 1.0 | 2.0 | 0.00 | 0.00 | 0.00 | 66 | 1009.4 |
| 20260906034425 | 86 | 181 | 2.0 | 8.0 | 0.00 | 0.00 | 0.00 | 66 | 1009.1 |
| 20260906033921 | 87 | 155 | 3.0 | 3.0 | 0.00 | 0.00 | 0.00 | 66 | 1009.1 |
| 20260906033421 | 87 | 171 | 2.0 | 6.0 | 0.00 | 0.00 | 0.00 | 66 | 1009.4 |
| 20260906032917 | 87 | 153 | 4.0 | 6.0 | 0.00 | 0.00 | 0.00 | 66 | 1009.3 |
| 20260906032413 | 87 | 168 | 3.0 | 6.0 | 0.00 | 0.00 | 0.00 | 66 | 1009.2 |
| 20260906031907 | 87 | 152 | 4.0 | 7.0 | 0.00 | 0.00 | 0.00 | 66 | 1009.3 |
| 20260906031403 | 87 | 158 | 2.0 | 5.0 | 0.00 | 0.00 | 0.00 | 66 | 1009.3 |
| 20260906030857 | 87 | 152 | 6.0 | 8.0 | 0.00 | 0.00 | 0.00 | 65 | 1009.4 |
| 20260906030353 | 87 | 151 | 2.0 | 5.0 | 0.00 | 0.00 | 0.00 | 65 | 1009.4 |
| 20260906025853 | 87 | 131 | 4.0 | 6.0 | 0.00 | 0.00 | 0.00 | 65 | 1009.2 |
| 20260906025347 | 87 | 140 | 4.0 | 7.0 | 0.00 | 0.00 | 0.00 | 64 | 1009.2 |
| 20260906024846 | 87 | 188 | 3.0 | 10.0 | 0.00 | 0.00 | 0.00 | 64 | 1009.3 |
| 20260906024345 | 87 | 133 | 3.0 | 9.0 | 0.00 | 0.00 | 0.00 | 64 | 1009.2 |
| 20260906023840 | 87 | 190 | 4.0 | 8.0 | 0.00 | 0.00 | 0.00 | 63 | 1009.2 |
| 20260906023337 | 87 | 146 | 4.0 | 8.0 | 0.00 | 0.00 | 0.00 | 63 | 1009.0 |
| 20260906022832 | 87 | 130 | 2.0 | 3.0 | 0.00 | 0.00 | 0.00 | 63 | 1008.8 |
| 20260906022326 | 87 | 147 | 3.0 | 8.0 | 0.00 | 0.00 | 0.00 | 63 | 1009.0 |
| 20260906021822 | 87 | 119 | 2.0 | 6.0 | 0.00 | 0.00 | 0.00 | 63 | 1009.0 |
| 20260906021321 | 88 | 149 | 5.0 | 7.0 | 0.00 | 0.00 | 0.00 | 62 | 1008.7 |
| 20260906020816 | 88 | 163 | 4.0 | 7.0 | 0.00 | 0.00 | 0.00 | 62 | 1008.8 |
| 20260906020315 | 88 | 204 | 2.0 | 5.0 | 0.00 | 0.00 | 0.00 | 62 | 1008.6 |
| 20260906015810 | 88 | 170 | 4.0 | 7.0 | 0.00 | 0.00 | 0.00 | 62 | 1008.5 |
| 20260906015308 | 88 | 152 | 1.0 | 6.0 | 0.00 | 0.00 | 0.00 | 61 | 1008.6 |
| 20260906014803 | 88 | 135 | 3.0 | 6.0 | 0.00 | 0.00 | 0.00 | 61 | 1008.6 |
| 20260906014259 | 88 | 167 | 3.0 | 3.0 | 0.00 | 0.00 | 0.00 | 61 | 1008.5 |
| 20260906013754 | 88 | 112 | 3.0 | 6.0 | 0.00 | 0.00 | 0.00 | 61 | 1008.5 |
| 20260906013249 | 89 | 174 | 4.0 | 7.0 | 0.00 | 0.00 | 0.00 | 60 | 1008.2 |
| 20260906012745 | 89 | 155 | 3.0 | 5.0 | 0.00 | 0.00 | 0.00 | 61 | 1008.3 |
| 20260906012239 | 89 | 111 | 4.0 | 9.0 | 0.00 | 0.00 | 0.00 | 60 | 1008.2 |
| 20260906011734 | 89 | 137 | 7.0 | 9.0 | 0.00 | 0.00 | 0.00 | 59 | 1008.1 |
| 20260906011229 | 90 | 132 | 5.0 | 10.0 | 0.00 | 0.00 | 0.00 | 58 | 1007.9 |
| 20260906010724 | 91 | 137 | 4.0 | 11.0 | 0.00 | 0.00 | 0.00 | 56 | 1007.7 |
| 20260906010221 | 92 | 141 | 6.0 | 13.0 | 0.00 | 0.00 | 0.00 | 54 | 1007.6 |
| 20260906005715 | 93 | 146 | 5.0 | 10.0 | 0.00 | 0.00 | 0.00 | 53 | 1007.6 |
| 20260906005215 | 93 | 147 | 3.0 | 10.0 | 0.00 | 0.00 | 0.00 | 52 | 1007.8 |
| 20260906004714 | 94 | 148 | 4.0 | 16.0 | 0.00 | 0.00 | 0.00 | 52 | 1007.4 |
| 20260906004209 | 94 | 168 | 3.0 | 3.0 | 0.00 | 0.00 | 0.00 | 51 | 1007.6 |
| 20260906003704 | 95 | 124 | 5.0 | 7.0 | 0.00 | 0.00 | 0.00 | 50 | 1007.7 |
| 20260906003200 | 95 | 135 | 3.0 | 5.0 | 0.00 | 0.00 | 0.00 | 46 | 1007.3 |
| 20260906002700 | 96 | 121 | 2.0 | 2.0 | 0.00 | 0.00 | 0.00 | 46 | 1007.3 |
| 20260906002154 | 96 | 172 | 1.0 | 2.0 | 0.00 | 0.00 | 0.00 | 46 | 1007.4 |
| 20260906001650 | 96 | 130 | 3.0 | 3.0 | 0.00 | 0.00 | 0.00 | 45 | 1007.4 |
| 20260906001149 | 96 | 133 | 2.0 | 7.0 | 0.00 | 0.00 | 0.00 | 44 | 1007.4 |
| 20260906000645 | 96 | 159 | 1.0 | 3.0 | 0.00 | 0.00 | 0.00 | 44 | 1007.3 |
| 20260906000141 | 96 | 113 | 2.0 | 7.0 | 0.00 | 0.00 | 0.00 | 44 | 1007.4 |
| 20260905235639 | 97 | 139 | 1.0 | 3.0 | 0.00 | 0.00 | 0.00 | 44 | 1007.4 |
| 20260905235135 | 97 | 131 | 2.0 | 2.0 | 0.00 | 0.00 | 0.00 | 43 | 1007.2 |
| 20260905234630 | 97 | 155 | 1.0 | 2.0 | 0.00 | 0.00 | 0.00 | 43 | 1007.0 |
| 20260905234126 | 97 | 130 | 0.0 | 1.0 | 0.00 | 0.00 | 0.00 | 43 | 1007.2 |
| 20260905233620 | 97 | 155 | 4.0 | 6.0 | 0.00 | 0.00 | 0.00 | 43 | 1007.1 |
| 20260905233114 | 97 | 144 | 3.0 | 5.0 | 0.00 | 0.00 | 0.00 | 43 | 1007.2 |
| 20260905232610 | 98 | 107 | 0.0 | 5.0 | 0.00 | 0.00 | 0.00 | 42 | 1007.3 |
| 20260905232106 | 97 | 115 | 1.0 | 5.0 | 0.00 | 0.00 | 0.00 | 42 | 1007.2 |
| 20260905231600 | 98 | 133 | 1.0 | 5.0 | 0.00 | 0.00 | 0.00 | 42 | 1007.3 |
| 20260905231057 | 98 | 76 | 1.0 | 5.0 | 0.00 | 0.00 | 0.00 | 42 | 1007.3 |
| 20260905230556 | 98 | 111 | 2.0 | 5.0 | 0.00 | 0.00 | 0.00 | 41 | 1007.4 |
| 20260905230055 | 98 | 117 | 0.0 | 3.0 | 0.00 | 0.00 | 0.00 | 42 | 1007.2 |
| 20260905225555 | 97 | 135 | 4.0 | 6.0 | 0.00 | 0.00 | 0.00 | 42 | 1007.3 |